PWSweather.com
Personal Weather Stations
Station Observations
EMMBROOK1
Emmbrook, WokinghamGB

EmmbrookWokinghamGB

Lat: 51.42698, Lon: -0.850575

Elevation: 144

Station Type: WH1081

http://www.wokinghamweather.co.uk

High Low Average
Temperature 42.3°F5.7°C 34.9°F1.6°C 37.9°F3.3°C
Dew Point 33.5°F0.8°C 23.6°F-4.7°C 28.3°F-2.1°C
Winds 12.5 mph 20.1 kmh 4.7 mph 7.6 kmh 9.0 mph NE14.5 kmh NE
Wind Gusts 20.6 mph33.2 kmh 7.6 mph12.2 kmh 13.0 mph20.9 kmh
Humidity 82% 58% 68%
Pressure 30.32 in1026.8 mb 30.16 in1021.3 mb -
Precipitation 0.00 in0.0 mm - -
Hour Temp Dew Point Humidity Winds Wind Gusts Pressure Precip Precip Rate Daily Precip Total
12:00 AM 37.9°F3.3°C 30.4°F-0.9°C 74% 6.8 mph NE10.9 kmh NE 9.2 mph14.8 kmh 30.16 in1021.3 mb 0.00 in0.0 mm 0.00 in0.0 mm 0.00 in0.0 mm
12:15 AM 37.8°F3.2°C 30.2°F-1.0°C 74% 5.5 mph ENE8.9 kmh ENE 8.3 mph13.4 kmh 30.16 in1021.3 mb 0.00 in0.0 mm 0.00 in0.0 mm 0.00 in0.0 mm
12:30 AM 37.6°F3.1°C 30.1°F-1.1°C 74% 6.8 mph NNE10.9 kmh NNE 8.3 mph13.4 kmh 30.17 in1021.7 mb 0.00 in0.0 mm 0.00 in0.0 mm 0.00 in0.0 mm
12:45 AM 37.6°F3.1°C 30.1°F-1.1°C 74% 7.6 mph ENE12.2 kmh ENE 10.7 mph17.2 kmh 30.16 in1021.3 mb 0.00 in0.0 mm 0.00 in0.0 mm 0.00 in0.0 mm
01:00 AM 37.6°F3.1°C 30.4°F-0.9°C 75% 7.9 mph NE12.7 kmh NE 11.4 mph18.3 kmh 30.17 in1021.7 mb 0.00 in0.0 mm 0.00 in0.0 mm 0.00 in0.0 mm
01:15 AM 37.6°F3.1°C 30.4°F-0.9°C 75% 9.2 mph NE14.8 kmh NE 13.0 mph20.9 kmh 30.17 in1021.7 mb 0.00 in0.0 mm 0.00 in0.0 mm 0.00 in0.0 mm
01:30 AM 37.4°F3.0°C 29.9°F-1.2°C 74% 7.9 mph NE12.7 kmh NE 10.7 mph17.2 kmh 30.18 in1022.0 mb 0.00 in0.0 mm 0.00 in0.0 mm 0.00 in0.0 mm
01:45 AM 37.4°F3.0°C 29.9°F-1.2°C 74% 9.1 mph NE14.6 kmh NE 13.6 mph21.9 kmh 30.18 in1022.0 mb 0.00 in0.0 mm 0.00 in0.0 mm 0.00 in0.0 mm
02:00 AM 37.2°F2.9°C 28.4°F-2.0°C 70% 8.5 mph ENE13.7 kmh ENE 11.4 mph18.3 kmh 30.19 in1022.4 mb 0.00 in0.0 mm 0.00 in0.0 mm 0.00 in0.0 mm
02:15 AM 37.2°F2.9°C 28.0°F-2.2°C 69% 9.1 mph NE14.6 kmh NE 12.1 mph19.5 kmh 30.19 in1022.4 mb 0.00 in0.0 mm 0.00 in0.0 mm 0.00 in0.0 mm
02:30 AM 37.2°F2.9°C 27.7°F-2.4°C 68% 8.0 mph NE12.9 kmh NE 12.1 mph19.5 kmh 30.19 in1022.4 mb 0.00 in0.0 mm 0.00 in0.0 mm 0.00 in0.0 mm
02:45 AM 37.0°F2.8°C 27.5°F-2.5°C 68% 7.3 mph NE11.7 kmh NE 10.7 mph17.2 kmh 30.20 in1022.7 mb 0.00 in0.0 mm 0.00 in0.0 mm 0.00 in0.0 mm
03:00 AM 37.0°F2.8°C 27.5°F-2.5°C 68% 7.5 mph ENE12.1 kmh ENE 10.7 mph17.2 kmh 30.20 in1022.7 mb 0.00 in0.0 mm 0.00 in0.0 mm 0.00 in0.0 mm
03:15 AM 36.9°F2.7°C 27.3°F-2.6°C 68% 8.1 mph ENE13.0 kmh ENE 11.4 mph18.3 kmh 30.20 in1022.7 mb 0.00 in0.0 mm 0.00 in0.0 mm 0.00 in0.0 mm
03:30 AM 36.9°F2.7°C 27.3°F-2.6°C 68% 6.4 mph ENE10.3 kmh ENE 9.8 mph15.8 kmh 30.20 in1022.7 mb 0.00 in0.0 mm 0.00 in0.0 mm 0.00 in0.0 mm
03:45 AM 36.7°F2.6°C 27.1°F-2.7°C 68% 7.8 mph ENE12.6 kmh ENE 10.7 mph17.2 kmh 30.21 in1023.0 mb 0.00 in0.0 mm 0.00 in0.0 mm 0.00 in0.0 mm
04:00 AM 36.7°F2.6°C 27.1°F-2.7°C 68% 7.9 mph NE12.7 kmh NE 10.7 mph17.2 kmh 30.20 in1022.7 mb 0.00 in0.0 mm 0.00 in0.0 mm 0.00 in0.0 mm
04:15 AM 36.9°F2.7°C 27.3°F-2.6°C 68% 6.8 mph NE10.9 kmh NE 10.7 mph17.2 kmh 30.21 in1023.0 mb 0.00 in0.0 mm 0.00 in0.0 mm 0.00 in0.0 mm
04:30 AM 36.9°F2.7°C 27.3°F-2.6°C 68% 10.9 mph NE17.5 kmh NE 14.5 mph23.3 kmh 30.20 in1022.7 mb 0.00 in0.0 mm 0.00 in0.0 mm 0.00 in0.0 mm
04:45 AM 36.9°F2.7°C 27.3°F-2.6°C 68% 9.2 mph NE14.8 kmh NE 11.4 mph18.3 kmh 30.20 in1022.7 mb 0.00 in0.0 mm 0.00 in0.0 mm 0.00 in0.0 mm
05:00 AM 36.9°F2.7°C 27.3°F-2.6°C 68% 9.2 mph NNE14.8 kmh NNE 12.1 mph19.5 kmh 30.21 in1023.0 mb 0.00 in0.0 mm 0.00 in0.0 mm 0.00 in0.0 mm
05:15 AM 36.9°F2.7°C 27.3°F-2.6°C 68% 7.8 mph NE12.6 kmh NE 11.4 mph18.3 kmh 30.21 in1023.0 mb 0.00 in0.0 mm 0.00 in0.0 mm 0.00 in0.0 mm
05:30 AM 36.9°F2.7°C 27.3°F-2.6°C 68% 10.1 mph NE16.3 kmh NE 15.2 mph24.5 kmh 30.22 in1023.4 mb 0.00 in0.0 mm 0.00 in0.0 mm 0.00 in0.0 mm
05:45 AM 36.9°F2.7°C 27.3°F-2.6°C 68% 9.9 mph NE15.9 kmh NE 15.9 mph25.6 kmh 30.22 in1023.4 mb 0.00 in0.0 mm 0.00 in0.0 mm 0.00 in0.0 mm
06:00 AM 36.9°F2.7°C 27.3°F-2.6°C 68% 9.1 mph NE14.6 kmh NE 12.1 mph19.5 kmh 30.23 in1023.7 mb 0.00 in0.0 mm 0.00 in0.0 mm 0.00 in0.0 mm
06:15 AM 36.7°F2.6°C 27.5°F-2.5°C 69% 8.5 mph NE13.7 kmh NE 10.7 mph17.2 kmh 30.23 in1023.7 mb 0.00 in0.0 mm 0.00 in0.0 mm 0.00 in0.0 mm
06:30 AM 37.0°F2.8°C 27.8°F-2.3°C 69% 10.4 mph NE16.7 kmh NE 13.0 mph20.9 kmh 30.24 in1024.0 mb 0.00 in0.0 mm 0.00 in0.0 mm 0.00 in0.0 mm
06:45 AM 37.4°F3.0°C 29.9°F-1.2°C 74% 9.8 mph ENE15.8 kmh ENE 13.0 mph20.9 kmh 30.25 in1024.4 mb 0.00 in0.0 mm 0.00 in0.0 mm 0.00 in0.0 mm
07:00 AM 37.8°F3.2°C 30.6°F-0.8°C 75% 11.1 mph NE17.9 kmh NE 16.8 mph27.0 kmh 30.26 in1024.7 mb 0.00 in0.0 mm 0.00 in0.0 mm 0.00 in0.0 mm
07:15 AM 38.1°F3.4°C 30.9°F-0.6°C 75% 12.1 mph NE19.5 kmh NE 20.6 mph33.2 kmh 30.26 in1024.7 mb 0.00 in0.0 mm 0.00 in0.0 mm 0.00 in0.0 mm
07:30 AM 37.9°F3.3°C 31.4°F-0.3°C 77% 9.8 mph ENE15.8 kmh ENE 16.8 mph27.0 kmh 30.26 in1024.7 mb 0.00 in0.0 mm 0.00 in0.0 mm 0.00 in0.0 mm
07:45 AM 37.8°F3.2°C 31.5°F-0.3°C 78% 9.5 mph ENE15.3 kmh ENE 17.4 mph28.0 kmh 30.27 in1025.1 mb 0.00 in0.0 mm 0.00 in0.0 mm 0.00 in0.0 mm
08:00 AM 37.8°F3.2°C 31.8°F-0.1°C 79% 9.2 mph ENE14.8 kmh ENE 13.6 mph21.9 kmh 30.27 in1025.1 mb 0.00 in0.0 mm 0.00 in0.0 mm 0.00 in0.0 mm
08:15 AM 37.8°F3.2°C 32.2°F0.1°C 80% 10.5 mph ENE16.9 kmh ENE 16.8 mph27.0 kmh 30.28 in1025.4 mb 0.00 in0.0 mm 0.00 in0.0 mm 0.00 in0.0 mm
08:30 AM 38.1°F3.4°C 32.8°F0.4°C 81% 10.8 mph E17.4 kmh E 15.9 mph25.6 kmh 30.29 in1025.7 mb 0.00 in0.0 mm 0.00 in0.0 mm 0.00 in0.0 mm
08:45 AM 38.1°F3.4°C 32.8°F0.4°C 81% 11.7 mph NE18.8 kmh NE 19.0 mph30.6 kmh 30.29 in1025.7 mb 0.00 in0.0 mm 0.00 in0.0 mm 0.00 in0.0 mm
09:00 AM 37.9°F3.3°C 32.6°F0.3°C 81% 11.0 mph NE17.7 kmh NE 16.8 mph27.0 kmh 30.30 in1026.1 mb 0.00 in0.0 mm 0.00 in0.0 mm 0.00 in0.0 mm
09:15 AM 37.9°F3.3°C 32.9°F0.5°C 82% 10.3 mph NE16.6 kmh NE 15.2 mph24.5 kmh 30.30 in1026.1 mb 0.00 in0.0 mm 0.00 in0.0 mm 0.00 in0.0 mm
09:30 AM 38.8°F3.8°C 33.5°F0.8°C 81% 12.2 mph ENE19.6 kmh ENE 20.6 mph33.2 kmh 30.30 in1026.1 mb 0.00 in0.0 mm 0.00 in0.0 mm 0.00 in0.0 mm
09:45 AM 38.7°F3.7°C 32.7°F0.4°C 79% 9.4 mph E15.1 kmh E 13.0 mph20.9 kmh 30.30 in1026.1 mb 0.00 in0.0 mm 0.00 in0.0 mm 0.00 in0.0 mm
10:00 AM 38.5°F3.6°C 32.5°F0.3°C 79% 10.4 mph E16.7 kmh E 14.5 mph23.3 kmh 30.31 in1026.4 mb 0.00 in0.0 mm 0.00 in0.0 mm 0.00 in0.0 mm
10:15 AM 39.0°F3.9°C 32.4°F0.2°C 77% 10.7 mph NE17.2 kmh NE 15.9 mph25.6 kmh 30.31 in1026.4 mb 0.00 in0.0 mm 0.00 in0.0 mm 0.00 in0.0 mm
10:30 AM 39.4°F4.1°C 32.1°F0.1°C 75% 11.1 mph E17.9 kmh E 16.8 mph27.0 kmh 30.32 in1026.8 mb 0.00 in0.0 mm 0.00 in0.0 mm 0.00 in0.0 mm
10:45 AM 39.9°F4.4°C 32.0°F0.0°C 73% 10.2 mph ENE16.4 kmh ENE 13.6 mph21.9 kmh 30.32 in1026.8 mb 0.00 in0.0 mm 0.00 in0.0 mm 0.00 in0.0 mm
11:00 AM 40.1°F4.5°C 31.8°F-0.1°C 72% 11.1 mph NE17.9 kmh NE 15.9 mph25.6 kmh 30.32 in1026.8 mb 0.00 in0.0 mm 0.00 in0.0 mm 0.00 in0.0 mm
11:15 AM 40.1°F4.5°C 31.5°F-0.3°C 71% 9.5 mph ENE15.3 kmh ENE 14.5 mph23.3 kmh 30.32 in1026.8 mb 0.00 in0.0 mm 0.00 in0.0 mm 0.00 in0.0 mm
11:30 AM 40.3°F4.6°C 31.6°F-0.2°C 71% 10.6 mph NE17.1 kmh NE 16.8 mph27.0 kmh 30.31 in1026.4 mb 0.00 in0.0 mm 0.00 in0.0 mm 0.00 in0.0 mm
11:45 AM 40.5°F4.7°C 31.8°F-0.1°C 71% 11.0 mph NE17.7 kmh NE 14.5 mph23.3 kmh 30.31 in1026.4 mb 0.00 in0.0 mm 0.00 in0.0 mm 0.00 in0.0 mm
12:00 PM 41.0°F5.0°C 32.0°F0.0°C 70% 9.6 mph E15.4 kmh E 16.8 mph27.0 kmh 30.30 in1026.1 mb 0.00 in0.0 mm 0.00 in0.0 mm 0.00 in0.0 mm
12:15 PM 41.4°F5.2°C 31.2°F-0.4°C 67% 10.2 mph ENE16.4 kmh ENE 20.6 mph33.2 kmh 30.30 in1026.1 mb 0.00 in0.0 mm 0.00 in0.0 mm 0.00 in0.0 mm
12:30 PM 41.7°F5.4°C 30.8°F-0.7°C 65% 11.0 mph NE17.7 kmh NE 17.4 mph28.0 kmh 30.30 in1026.1 mb 0.00 in0.0 mm 0.00 in0.0 mm 0.00 in0.0 mm
12:45 PM 42.1°F5.6°C 30.8°F-0.7°C 64% 10.7 mph NE17.2 kmh NE 15.9 mph25.6 kmh 30.30 in1026.1 mb 0.00 in0.0 mm 0.00 in0.0 mm 0.00 in0.0 mm
01:00 PM 42.1°F5.6°C 30.4°F-0.9°C 63% 11.2 mph NE18.0 kmh NE 15.2 mph24.5 kmh 30.30 in1026.1 mb 0.00 in0.0 mm 0.00 in0.0 mm 0.00 in0.0 mm
01:15 PM 42.3°F5.7°C 30.2°F-1.0°C 62% 10.9 mph E17.5 kmh E 15.2 mph24.5 kmh 30.30 in1026.1 mb 0.00 in0.0 mm 0.00 in0.0 mm 0.00 in0.0 mm
01:30 PM 42.3°F5.7°C 30.2°F-1.0°C 62% 8.7 mph NE14.0 kmh NE 12.1 mph19.5 kmh 30.29 in1025.7 mb 0.00 in0.0 mm 0.00 in0.0 mm 0.00 in0.0 mm
01:45 PM 42.3°F5.7°C 29.8°F-1.2°C 61% 9.5 mph NE15.3 kmh NE 17.4 mph28.0 kmh 30.29 in1025.7 mb 0.00 in0.0 mm 0.00 in0.0 mm 0.00 in0.0 mm
02:00 PM 42.3°F5.7°C 29.8°F-1.2°C 61% 12.5 mph ENE20.1 kmh ENE 20.6 mph33.2 kmh 30.28 in1025.4 mb 0.00 in0.0 mm 0.00 in0.0 mm 0.00 in0.0 mm
02:15 PM 42.3°F5.7°C 29.4°F-1.4°C 60% 11.3 mph NE18.2 kmh NE 15.2 mph24.5 kmh 30.28 in1025.4 mb 0.00 in0.0 mm 0.00 in0.0 mm 0.00 in0.0 mm
02:30 PM 42.3°F5.7°C 29.4°F-1.4°C 60% 9.4 mph ENE15.1 kmh ENE 13.6 mph21.9 kmh 30.29 in1025.7 mb 0.00 in0.0 mm 0.00 in0.0 mm 0.00 in0.0 mm
02:45 PM 42.3°F5.7°C 29.0°F-1.7°C 59% 8.2 mph NE13.2 kmh NE 13.0 mph20.9 kmh 30.29 in1025.7 mb 0.00 in0.0 mm 0.00 in0.0 mm 0.00 in0.0 mm
03:00 PM 42.1°F5.6°C 28.4°F-2.0°C 58% 10.0 mph E16.1 kmh E 14.5 mph23.3 kmh 30.29 in1025.7 mb 0.00 in0.0 mm 0.00 in0.0 mm 0.00 in0.0 mm
03:15 PM 41.5°F5.3°C 27.9°F-2.3°C 58% 9.1 mph E14.6 kmh E 14.5 mph23.3 kmh 30.29 in1025.7 mb 0.00 in0.0 mm 0.00 in0.0 mm 0.00 in0.0 mm
03:30 PM 41.0°F5.0°C 28.2°F-2.1°C 60% 9.2 mph NE14.8 kmh NE 15.9 mph25.6 kmh 30.29 in1025.7 mb 0.00 in0.0 mm 0.00 in0.0 mm 0.00 in0.0 mm
03:45 PM 40.5°F4.7°C 28.1°F-2.2°C 61% 10.1 mph ENE16.3 kmh ENE 16.8 mph27.0 kmh 30.30 in1026.1 mb 0.00 in0.0 mm 0.00 in0.0 mm 0.00 in0.0 mm
04:00 PM 39.7°F4.3°C 27.4°F-2.6°C 61% 8.8 mph ENE14.2 kmh ENE 13.6 mph21.9 kmh 30.30 in1026.1 mb 0.00 in0.0 mm 0.00 in0.0 mm 0.00 in0.0 mm
04:15 PM 39.4°F4.1°C 27.5°F-2.5°C 62% 9.0 mph ENE14.5 kmh ENE 15.2 mph24.5 kmh 30.30 in1026.1 mb 0.00 in0.0 mm 0.00 in0.0 mm 0.00 in0.0 mm
04:30 PM 39.0°F3.9°C 27.9°F-2.3°C 64% 8.2 mph ENE13.2 kmh ENE 15.9 mph25.6 kmh 30.30 in1026.1 mb 0.00 in0.0 mm 0.00 in0.0 mm 0.00 in0.0 mm
04:45 PM 38.5°F3.6°C 27.4°F-2.6°C 64% 7.5 mph ENE12.1 kmh ENE 9.8 mph15.8 kmh 30.31 in1026.4 mb 0.00 in0.0 mm 0.00 in0.0 mm 0.00 in0.0 mm
05:00 PM 38.3°F3.5°C 27.2°F-2.7°C 64% 7.9 mph NE12.7 kmh NE 11.4 mph18.3 kmh 30.30 in1026.1 mb 0.00 in0.0 mm 0.00 in0.0 mm 0.00 in0.0 mm
05:15 PM 37.6°F3.1°C 26.5°F-3.1°C 64% 7.6 mph ENE12.2 kmh ENE 11.4 mph18.3 kmh 30.30 in1026.1 mb 0.00 in0.0 mm 0.00 in0.0 mm 0.00 in0.0 mm
05:30 PM 37.6°F3.1°C 26.5°F-3.1°C 64% 8.0 mph ENE12.9 kmh ENE 14.5 mph23.3 kmh 30.30 in1026.1 mb 0.00 in0.0 mm 0.00 in0.0 mm 0.00 in0.0 mm
05:45 PM 37.2°F2.9°C 24.2°F-4.3°C 59% 8.1 mph NE13.0 kmh NE 11.4 mph18.3 kmh 30.30 in1026.1 mb 0.00 in0.0 mm 0.00 in0.0 mm 0.00 in0.0 mm
06:00 PM 36.9°F2.7°C 23.9°F-4.5°C 59% 6.5 mph ENE10.5 kmh ENE 12.1 mph19.5 kmh 30.30 in1026.1 mb 0.00 in0.0 mm 0.00 in0.0 mm 0.00 in0.0 mm
06:15 PM 36.7°F2.6°C 24.1°F-4.4°C 60% 8.5 mph ENE13.7 kmh ENE 13.0 mph20.9 kmh 30.30 in1026.1 mb 0.00 in0.0 mm 0.00 in0.0 mm 0.00 in0.0 mm
06:30 PM 36.3°F2.4°C 23.8°F-4.6°C 60% 7.9 mph ENE12.7 kmh ENE 12.1 mph19.5 kmh 30.29 in1025.7 mb 0.00 in0.0 mm 0.00 in0.0 mm 0.00 in0.0 mm
06:45 PM 36.1°F2.3°C 23.6°F-4.7°C 60% 7.2 mph ENE11.6 kmh ENE 11.4 mph18.3 kmh 30.29 in1025.7 mb 0.00 in0.0 mm 0.00 in0.0 mm 0.00 in0.0 mm
07:00 PM 36.0°F2.2°C 23.8°F-4.6°C 61% 6.6 mph NE10.6 kmh NE 10.7 mph17.2 kmh 30.30 in1026.1 mb 0.00 in0.0 mm 0.00 in0.0 mm 0.00 in0.0 mm
07:15 PM 35.4°F1.9°C 24.1°F-4.4°C 63% 6.0 mph E9.7 kmh E 11.4 mph18.3 kmh 30.30 in1026.1 mb 0.00 in0.0 mm 0.00 in0.0 mm 0.00 in0.0 mm
07:30 PM 35.4°F1.9°C 24.1°F-4.4°C 63% 6.2 mph E10.0 kmh E 12.1 mph19.5 kmh 30.30 in1026.1 mb 0.00 in0.0 mm 0.00 in0.0 mm 0.00 in0.0 mm
07:45 PM 35.2°F1.8°C 24.3°F-4.3°C 64% 5.5 mph NE8.9 kmh NE 7.6 mph12.2 kmh 30.30 in1026.1 mb 0.00 in0.0 mm 0.00 in0.0 mm 0.00 in0.0 mm
08:00 PM 35.1°F1.7°C 24.1°F-4.4°C 64% 6.8 mph NE10.9 kmh NE 13.0 mph20.9 kmh 30.30 in1026.1 mb 0.00 in0.0 mm 0.00 in0.0 mm 0.00 in0.0 mm
08:15 PM 35.1°F1.7°C 24.1°F-4.4°C 64% 6.8 mph NE10.9 kmh NE 14.5 mph23.3 kmh 30.30 in1026.1 mb 0.00 in0.0 mm 0.00 in0.0 mm 0.00 in0.0 mm
08:30 PM 35.2°F1.8°C 24.3°F-4.3°C 64% 6.8 mph ENE10.9 kmh ENE 8.3 mph13.4 kmh 30.30 in1026.1 mb 0.00 in0.0 mm 0.00 in0.0 mm 0.00 in0.0 mm
08:45 PM 35.1°F1.7°C 24.1°F-4.4°C 64% 5.5 mph ENE8.9 kmh ENE 7.6 mph12.2 kmh 30.30 in1026.1 mb 0.00 in0.0 mm 0.00 in0.0 mm 0.00 in0.0 mm
09:00 PM 35.1°F1.7°C 24.1°F-4.4°C 64% 5.9 mph NE9.5 kmh NE 9.2 mph14.8 kmh 30.29 in1025.7 mb 0.00 in0.0 mm 0.00 in0.0 mm 0.00 in0.0 mm
09:15 PM 35.1°F1.7°C 24.5°F-4.2°C 65% 6.6 mph NE10.6 kmh NE 9.8 mph15.8 kmh 30.29 in1025.7 mb 0.00 in0.0 mm 0.00 in0.0 mm 0.00 in0.0 mm
09:30 PM 35.1°F1.7°C 24.5°F-4.2°C 65% 6.3 mph E10.1 kmh E 10.7 mph17.2 kmh 30.29 in1025.7 mb 0.00 in0.0 mm 0.00 in0.0 mm 0.00 in0.0 mm
09:45 PM 35.1°F1.7°C 24.9°F-3.9°C 66% 6.3 mph NE10.1 kmh NE 9.2 mph14.8 kmh 30.29 in1025.7 mb 0.00 in0.0 mm 0.00 in0.0 mm 0.00 in0.0 mm
10:00 PM 35.1°F1.7°C 25.2°F-3.8°C 67% 6.5 mph NE10.5 kmh NE 9.8 mph15.8 kmh 30.29 in1025.7 mb 0.00 in0.0 mm 0.00 in0.0 mm 0.00 in0.0 mm
10:15 PM 34.9°F1.6°C 25.4°F-3.7°C 68% 6.7 mph NE10.8 kmh NE 9.8 mph15.8 kmh 30.28 in1025.4 mb 0.00 in0.0 mm 0.00 in0.0 mm 0.00 in0.0 mm
10:30 PM 34.9°F1.6°C 25.8°F-3.4°C 69% 6.0 mph ENE9.7 kmh ENE 10.7 mph17.2 kmh 30.28 in1025.4 mb 0.00 in0.0 mm 0.00 in0.0 mm 0.00 in0.0 mm
10:45 PM 35.1°F1.7°C 25.9°F-3.4°C 69% 6.6 mph NE10.6 kmh NE 10.7 mph17.2 kmh 30.28 in1025.4 mb 0.00 in0.0 mm 0.00 in0.0 mm 0.00 in0.0 mm
11:00 PM 35.4°F1.9°C 26.6°F-3.0°C 70% 4.7 mph ENE7.6 kmh ENE 7.6 mph12.2 kmh 30.28 in1025.4 mb 0.00 in0.0 mm 0.00 in0.0 mm 0.00 in0.0 mm
11:15 PM 35.4°F1.9°C 26.6°F-3.0°C 70% 6.1 mph ENE9.8 kmh ENE 11.4 mph18.3 kmh 30.28 in1025.4 mb 0.00 in0.0 mm 0.00 in0.0 mm 0.00 in0.0 mm
11:30 PM 36.0°F2.2°C 26.8°F-2.9°C 69% 5.3 mph NE8.5 kmh NE 7.6 mph12.2 kmh 30.27 in1025.1 mb 0.00 in0.0 mm 0.00 in0.0 mm 0.00 in0.0 mm
11:45 PM 36.1°F2.3°C 27.0°F-2.8°C 69% 7.0 mph ENE11.3 kmh ENE 11.4 mph18.3 kmh 30.26 in1024.7 mb 0.00 in0.0 mm 0.00 in0.0 mm 0.00 in0.0 mm